Time;durP1;ratioP1;P1;durP2;ratioP2;P2;SDS_P1;SDS_P2;PMS_P1;PMS_P2;Temp;Humidity;BMP_temperature;BMP_pressure;BME280_temperature;BME280_humidity;BME280_pressure;Samples;Min_cycle;Max_cycle;Signal;HPM_P1;HPM_P2
2021/05/19 00:00:21;;;;;;;1.77;0.75;;;6.00;91.50;;;;;;4811539;29;20120;-80
2021/05/19 00:02:49;;;;;;;1.38;0.68;;;6.10;91.60;;;;;;4815300;29;20054;-82
2021/05/19 00:05:16;;;;;;;0.88;0.52;;;6.10;91.50;;;;;;4829160;29;20063;-82
2021/05/19 00:07:44;;;;;;;1.25;0.75;;;6.20;91.20;;;;;;4815587;29;20273;-81
2021/05/19 00:10:15;;;;;;;1.45;0.60;;;6.20;91.00;;;;;;4813692;29;20051;-80
2021/05/19 00:12:42;;;;;;;1.17;0.68;;;6.30;91.00;;;;;;4814563;29;20058;-81
2021/05/19 00:15:11;;;;;;;5.47;1.00;;;6.30;90.90;;;;;;4829926;29;20130;-79
2021/05/19 00:17:45;;;;;;;;;;;6.30;91.00;;;;;;4793901;29;20046;-80
2021/05/19 00:20:13;;;;;;;3.25;0.73;;;6.20;91.20;;;;;;4809112;29;19929;-80
2021/05/19 00:22:41;;;;;;;1.98;0.85;;;6.20;91.10;;;;;;4816681;29;20079;-81
2021/05/19 00:25:11;;;;;;;1.45;0.70;;;6.10;91.10;;;;;;4800341;29;20120;-81
2021/05/19 00:27:38;;;;;;;1.38;0.63;;;6.10;91.10;;;;;;4828020;29;20055;-80
2021/05/19 00:30:13;;;;;;;1.85;0.95;;;6.20;91.20;;;;;;4823264;29;20407;-81
2021/05/19 00:32:41;;;;;;;1.67;0.90;;;6.20;91.20;;;;;;4831127;29;20129;-80
2021/05/19 00:35:09;;;;;;;1.88;0.98;;;6.20;91.20;;;;;;4823731;29;20063;-81
2021/05/19 00:37:36;;;;;;;1.25;0.50;;;6.20;91.20;;;;;;4795092;29;20085;-80
2021/05/19 00:40:05;;;;;;;1.42;0.77;;;6.20;91.40;;;;;;4786693;29;20086;-81
2021/05/19 00:42:32;;;;;;;2.22;1.25;;;6.20;91.60;;;;;;4779621;29;20066;-81
2021/05/19 00:45:05;;;;;;;2.10;1.00;;;6.10;91.60;;;;;;4831753;29;20118;-81
2021/05/19 00:47:34;;;;;;;3.78;1.33;;;6.10;91.70;;;;;;4830360;29;20066;-80
2021/05/19 00:50:03;;;;;;;4.20;1.55;;;6.10;91.80;;;;;;4816436;29;20080;-80
2021/05/19 00:52:30;;;;;;;3.28;1.42;;;6.20;92.10;;;;;;4796694;29;20081;-79
2021/05/19 00:54:57;;;;;;;2.40;0.98;;;6.20;92.30;;;;;;4816416;29;20062;-81
2021/05/19 00:57:25;;;;;;;2.08;0.90;;;6.20;92.20;;;;;;4814901;29;20062;-80
2021/05/19 00:59:53;;;;;;;3.45;1.83;;;6.30;92.10;;;;;;4809862;29;20059;-81
2021/05/19 01:02:27;;;;;;;2.00;1.10;;;6.40;92.10;;;;;;4809540;29;20134;-79
2021/05/19 01:04:55;;;;;;;3.17;1.35;;;6.60;91.80;;;;;;4815240;29;20038;-80
2021/05/19 01:07:35;;;;;;;3.35;1.20;;;6.60;91.30;;;;;;4798640;29;20085;-81
2021/05/19 01:10:07;;;;;;;1.85;1.02;;;6.60;91.00;;;;;;4816188;29;20117;-81
2021/05/19 01:12:34;;;;;;;2.50;1.05;;;6.60;91.10;;;;;;4815874;29;20074;-80
2021/05/19 01:15:01;;;;;;;2.90;1.00;;;6.50;90.70;;;;;;4792455;29;20059;-83
2021/05/19 01:17:29;;;;;;;2.20;1.00;;;6.40;90.40;;;;;;4829062;29;20082;-81
2021/05/19 01:19:57;;;;;;;6.85;1.25;;;6.40;90.50;;;;;;4813658;29;20062;-81
2021/05/19 01:22:29;;;;;;;1.63;0.95;;;6.40;90.60;;;;;;4814089;29;20078;-79
2021/05/19 01:24:59;;;;;;;1.33;0.90;;;6.30;90.30;;;;;;4814042;29;20699;-82
2021/05/19 01:27:26;;;;;;;1.60;1.05;;;6.30;90.30;;;;;;4828045;29;20055;-79
2021/05/19 01:29:57;;;;;;;2.20;0.80;;;6.30;90.10;;;;;;4776927;29;20104;-80
2021/05/19 01:32:25;;;;;;;5.22;0.95;;;6.40;89.90;;;;;;4814978;29;20059;-80
2021/05/19 01:34:53;;;;;;;1.42;0.70;;;6.30;89.70;;;;;;4814237;29;20407;-80
2021/05/19 01:37:20;;;;;;;5.32;1.60;;;6.40;89.60;;;;;;4794919;29;20188;-79
2021/05/19 01:39:53;;;;;;;2.05;1.02;;;6.40;89.30;;;;;;4827651;29;20063;-79
2021/05/19 01:42:20;;;;;;;2.17;1.00;;;6.40;89.40;;;;;;4830085;29;21220;-81
2021/05/19 01:44:53;;;;;;;2.67;1.00;;;6.40;89.60;;;;;;4797426;29;20125;-82
2021/05/19 01:47:45;;;;;;;;;;;6.40;89.80;;;;;;4813136;29;20066;-81
2021/05/19 01:50:14;;;;;;;2.92;1.17;;;6.50;89.90;;;;;;4826996;29;20494;-81
2021/05/19 01:52:42;;;;;;;4.25;1.73;;;6.60;90.40;;;;;;4821374;29;20077;-81
2021/05/19 01:55:15;;;;;;;3.40;1.48;;;6.70;90.30;;;;;;4778857;29;20058;-80
2021/05/19 01:57:44;;;;;;;22.00;2.85;;;6.70;90.30;;;;;;4819814;29;20058;-80
2021/05/19 02:00:14;;;;;;;4.13;1.80;;;6.60;90.50;;;;;;4781435;29;20050;-81
2021/05/19 02:02:56;;;;;;;5.50;1.90;;;6.60;91.00;;;;;;4816851;29;20061;-81
2021/05/19 02:05:25;;;;;;;3.35;1.50;;;6.60;91.20;;;;;;4801453;29;20050;-81
2021/05/19 02:07:54;;;;;;;3.75;1.92;;;6.60;91.40;;;;;;4783818;29;20059;-81
2021/05/19 02:10:25;;;;;;;13.40;2.15;;;6.60;91.20;;;;;;4783342;29;20081;-80
2021/05/19 02:12:53;;;;;;;4.97;1.77;;;6.70;91.40;;;;;;4803536;29;20058;-81
2021/05/19 02:15:21;;;;;;;2.65;1.33;;;6.60;91.20;;;;;;4790436;29;20234;-80
2021/05/19 02:17:50;;;;;;;6.18;1.52;;;6.60;91.70;;;;;;4830064;29;20058;-80
2021/05/19 02:20:20;;;;;;;12.80;1.80;;;6.60;91.60;;;;;;4793942;29;20082;-81
2021/05/19 02:22:48;;;;;;;3.15;1.42;;;6.60;91.60;;;;;;4816528;29;20062;-82
2021/05/19 02:25:16;;;;;;;2.88;1.63;;;6.50;91.50;;;;;;4814217;29;20118;-81
2021/05/19 02:27:46;;;;;;;5.20;1.55;;;6.60;92.20;;;;;;4815841;29;20058;-80
2021/05/19 02:30:17;;;;;;;9.20;1.30;;;6.60;92.20;;;;;;4794134;29;20058;-81
2021/05/19 02:32:46;;;;;;;5.88;1.60;;;6.60;91.70;;;;;;4807819;29;20055;-80
2021/05/19 02:35:17;;;;;;;2.83;1.30;;;6.50;92.50;;;;;;4816524;29;20090;-81
2021/05/19 02:37:47;;;;;;;9.00;1.60;;;6.60;92.80;;;;;;4797659;29;20059;-81
2021/05/19 02:40:16;;;;;;;7.60;1.77;;;6.60;92.40;;;;;;4815651;29;20063;-81
2021/05/19 02:42:45;;;;;;;3.40;1.23;;;6.60;92.20;;;;;;4814918;29;20242;-82
2021/05/19 02:45:17;;;;;;;6.25;1.45;;;6.50;91.70;;;;;;4814275;29;20069;-79
2021/05/19 02:47:44;;;;;;;10.32;1.23;;;6.40;91.70;;;;;;4815035;29;20112;-79
2021/05/19 02:50:13;;;;;;;7.13;1.40;;;6.40;91.80;;;;;;4828637;29;20111;-82
2021/05/19 02:52:40;;;;;;;10.45;1.30;;;6.30;92.10;;;;;;4783042;29;20074;-81
2021/05/19 02:55:08;;;;;;;8.93;1.45;;;6.30;92.10;;;;;;4816301;29;20128;-79
2021/05/19 02:57:35;;;;;;;5.68;2.30;;;6.20;92.10;;;;;;4801107;29;20066;-81
2021/05/19 03:00:07;;;;;;;4.85;1.15;;;6.30;92.50;;;;;;4803501;29;20093;-83
2021/05/19 03:02:34;;;;;;;2.80;1.40;;;6.30;92.40;;;;;;4786926;29;20054;-81
2021/05/19 03:05:02;;;;;;;3.50;1.10;;;6.30;92.20;;;;;;4788813;29;20051;-81
2021/05/19 03:07:31;;;;;;;9.18;1.33;;;6.20;92.10;;;;;;4800059;29;20066;-81
2021/05/19 03:09:58;;;;;;;18.23;1.38;;;6.10;92.00;;;;;;4788859;29;20127;-82
2021/05/19 03:12:26;;;;;;;4.15;1.20;;;6.10;92.10;;;;;;4787736;29;20112;-81
2021/05/19 03:14:53;;;;;;;13.00;1.70;;;6.10;92.30;;;;;;4796361;29;20069;-81
2021/05/19 03:17:21;;;;;;;2.47;1.20;;;6.20;92.20;;;;;;4802179;29;20067;-81
2021/05/19 03:19:48;;;;;;;3.13;1.77;;;6.20;92.10;;;;;;4799448;29;20054;-83
2021/05/19 03:22:15;;;;;;;4.72;1.23;;;6.20;92.30;;;;;;4802117;29;20051;-82
2021/05/19 03:24:43;;;;;;;3.90;1.40;;;6.20;92.10;;;;;;4801032;29;20058;-81
2021/05/19 03:27:10;;;;;;;10.00;1.33;;;6.10;91.70;;;;;;4801624;29;20138;-82
2021/05/19 03:29:37;;;;;;;2.55;1.30;;;6.20;92.40;;;;;;4795145;29;20118;-81
2021/05/19 03:32:07;;;;;;;2.13;1.50;;;6.30;92.50;;;;;;4799879;29;20408;-83
2021/05/19 03:34:35;;;;;;;4.45;1.90;;;6.20;92.20;;;;;;4809149;29;20063;-82
2021/05/19 03:37:03;;;;;;;3.78;1.55;;;6.30;92.50;;;;;;4804330;29;20138;-82
2021/05/19 03:39:30;;;;;;;4.88;2.17;;;6.20;92.50;;;;;;4804381;29;20069;-82
2021/05/19 03:42:01;;;;;;;15.48;1.98;;;6.20;92.60;;;;;;4801343;29;20058;-83
2021/05/19 03:44:28;;;;;;;3.45;1.63;;;6.20;92.70;;;;;;4803400;29;20249;-82
2021/05/19 03:46:55;;;;;;;5.32;1.50;;;6.20;92.60;;;;;;4803974;29;20122;-81
2021/05/19 03:49:22;;;;;;;2.58;1.27;;;6.40;92.70;;;;;;4802438;29;20083;-81
2021/05/19 03:51:50;;;;;;;4.35;1.90;;;6.50;92.70;;;;;;4799474;29;20063;-81
2021/05/19 03:54:17;;;;;;;4.15;1.73;;;6.60;92.80;;;;;;4801630;29;20093;-81
2021/05/19 03:56:45;;;;;;;4.78;1.98;;;6.70;92.60;;;;;;4790097;29;20317;-80
2021/05/19 03:59:12;;;;;;;2.85;1.48;;;6.80;91.90;;;;;;4812884;29;24579;-83
2021/05/19 04:01:39;;;;;;;5.65;1.60;;;6.80;91.50;;;;;;4786293;29;20369;-82
2021/05/19 04:04:06;;;;;;;3.83;1.40;;;6.80;91.40;;;;;;4781524;29;20062;-84
2021/05/19 04:06:33;;;;;;;16.55;1.67;;;6.80;91.40;;;;;;4816405;29;20071;-81
2021/05/19 04:09:06;;;;;;;3.42;1.70;;;6.70;91.40;;;;;;4794081;29;20090;-84
2021/05/19 04:11:34;;;;;;;21.65;2.35;;;6.50;91.00;;;;;;4784199;29;20280;-82
2021/05/19 04:14:01;;;;;;;3.72;1.67;;;6.40;91.50;;;;;;4779851;29;20122;-82
2021/05/19 04:16:30;;;;;;;4.68;2.30;;;6.60;91.90;;;;;;4801007;29;20078;-83
2021/05/19 04:18:57;;;;;;;22.38;2.63;;;6.50;91.10;;;;;;4784687;29;20165;-81
2021/05/19 04:21:25;;;;;;;4.80;2.28;;;6.50;91.30;;;;;;4782574;29;20326;-83
2021/05/19 04:23:52;;;;;;;6.68;2.22;;;6.40;91.00;;;;;;4798339;29;20097;-81
2021/05/19 04:26:20;;;;;;;10.00;2.00;;;6.40;91.10;;;;;;4812746;29;20220;-80
2021/05/19 04:28:47;;;;;;;4.53;2.03;;;6.40;90.90;;;;;;4785342;29;20057;-82
2021/05/19 04:31:14;;;;;;;4.63;2.05;;;6.40;90.80;;;;;;4816474;29;20246;-82
2021/05/19 04:33:42;;;;;;;10.07;1.85;;;6.50;90.70;;;;;;4785998;30;20224;-82
2021/05/19 04:36:10;;;;;;;6.47;2.30;;;6.60;90.80;;;;;;4786859;29;20120;-80
2021/05/19 04:38:37;;;;;;;6.05;2.90;;;6.60;90.50;;;;;;4787641;29;20074;-81
2021/05/19 04:41:07;;;;;;;4.82;1.92;;;6.60;90.60;;;;;;4787174;29;20247;-81
2021/05/19 04:43:35;;;;;;;5.38;2.33;;;6.80;90.60;;;;;;4785677;30;20403;-81
2021/05/19 04:46:04;;;;;;;4.32;1.88;;;6.90;90.00;;;;;;4819512;29;20051;-81
2021/05/19 04:48:32;;;;;;;6.63;1.75;;;7.00;89.30;;;;;;4790494;30;20391;-82
2021/05/19 04:51:01;;;;;;;22.20;2.25;;;7.00;88.90;;;;;;4783194;29;20073;-81
2021/05/19 04:53:29;;;;;;;11.65;1.90;;;7.00;88.90;;;;;;4777963;29;20576;-82
2021/05/19 04:55:56;;;;;;;4.82;2.40;;;7.40;89.10;;;;;;4811204;29;20065;-80
2021/05/19 04:58:26;;;;;;;3.67;1.85;;;7.60;88.20;;;;;;4779142;29;20075;-82
2021/05/19 05:00:55;;;;;;;4.03;1.80;;;7.90;86.90;;;;;;4814871;29;20051;-82
2021/05/19 05:03:23;;;;;;;4.43;1.52;;;7.80;86.10;;;;;;4763743;29;20288;-82
2021/05/19 05:05:51;;;;;;;4.32;1.52;;;7.90;86.30;;;;;;4781829;29;20059;-81
2021/05/19 05:08:18;;;;;;;9.35;2.47;;;8.00;85.90;;;;;;4795514;29;20133;-80
2021/05/19 05:10:45;;;;;;;5.57;2.50;;;8.20;86.00;;;;;;4803912;29;20158;-81
2021/05/19 05:13:12;;;;;;;3.97;1.80;;;8.40;84.90;;;;;;4802162;29;20174;-81
2021/05/19 05:15:39;;;;;;;5.65;2.40;;;8.30;84.70;;;;;;4821071;29;20086;-82
2021/05/19 05:18:07;;;;;;;5.57;2.20;;;8.30;85.00;;;;;;4782717;29;20204;-80
2021/05/19 05:20:34;;;;;;;4.90;2.10;;;8.30;84.70;;;;;;4799563;29;20366;-80
2021/05/19 05:23:02;;;;;;;6.07;2.10;;;8.10;84.90;;;;;;4798905;29;20162;-83
2021/05/19 05:25:30;;;;;;;4.68;2.42;;;8.10;85.60;;;;;;4820497;29;20046;-82
2021/05/19 05:27:58;;;;;;;4.65;2.13;;;7.90;85.60;;;;;;4783828;29;20101;-80
2021/05/19 05:30:25;;;;;;;5.22;2.47;;;7.90;86.50;;;;;;4801621;29;20122;-82
2021/05/19 05:32:52;;;;;;;6.60;2.60;;;7.90;86.50;;;;;;4815164;29;20058;-84
2021/05/19 05:35:21;;;;;;;4.38;1.85;;;7.90;86.30;;;;;;4813944;29;20047;-83
2021/05/19 05:37:48;;;;;;;5.40;2.60;;;8.10;86.80;;;;;;4799655;29;20099;-81
2021/05/19 05:40:15;;;;;;;4.63;1.92;;;8.10;87.10;;;;;;4786954;29;20050;-83
2021/05/19 05:42:42;;;;;;;4.78;2.03;;;8.30;86.50;;;;;;4799604;29;20334;-81
2021/05/19 05:45:10;;;;;;;5.07;2.53;;;8.40;85.90;;;;;;4786235;29;20059;-81
2021/05/19 05:47:37;;;;;;;4.28;2.03;;;8.40;85.80;;;;;;4800237;29;20062;-81
2021/05/19 05:50:06;;;;;;;5.80;2.28;;;8.50;85.50;;;;;;4783232;29;20519;-81
2021/05/19 05:52:34;;;;;;;5.28;2.22;;;8.40;85.60;;;;;;4803273;29;20138;-80
2021/05/19 05:55:01;;;;;;;5.90;2.50;;;8.50;86.00;;;;;;4785754;29;20279;-83
2021/05/19 05:57:35;;;;;;;4.85;2.35;;;8.70;85.30;;;;;;4784517;29;20058;-81
2021/05/19 06:00:06;;;;;;;5.65;2.60;;;8.80;85.20;;;;;;4803267;29;20076;-82
2021/05/19 06:02:41;;;;;;;6.13;2.38;;;8.90;84.40;;;;;;4808118;29;20062;-81
2021/05/19 06:05:11;;;;;;;6.43;2.38;;;9.00;84.70;;;;;;4801502;29;20118;-82
2021/05/19 06:07:39;;;;;;;4.95;2.28;;;9.30;83.60;;;;;;4802351;29;20050;-82
2021/05/19 06:10:07;;;;;;;4.97;2.45;;;9.40;83.00;;;;;;4798448;29;20378;-81
2021/05/19 06:12:34;;;;;;;5.78;2.38;;;9.40;82.60;;;;;;4805167;29;20057;-83
2021/05/19 06:15:06;;;;;;;5.00;2.60;;;9.50;82.60;;;;;;4794426;29;20090;-83
2021/05/19 06:17:34;;;;;;;3.92;2.03;;;9.60;82.40;;;;;;4806994;29;20066;-81
2021/05/19 06:20:01;;;;;;;6.18;2.83;;;9.90;82.10;;;;;;4768374;29;20078;-83
2021/05/19 06:22:29;;;;;;;5.07;2.28;;;10.00;81.80;;;;;;4798773;29;20370;-80
2021/05/19 06:24:57;;;;;;;6.32;2.22;;;10.00;80.30;;;;;;4800406;29;20127;-80
2021/05/19 06:27:24;;;;;;;5.70;2.70;;;9.90;82.00;;;;;;4786486;29;20104;-81
2021/05/19 06:29:51;;;;;;;6.65;2.67;;;10.00;81.50;;;;;;4783636;29;20279;-82
2021/05/19 06:32:18;;;;;;;5.93;2.60;;;10.10;80.90;;;;;;4814128;29;20442;-82
2021/05/19 06:34:45;;;;;;;5.97;3.00;;;10.30;80.00;;;;;;4811681;29;20053;-81
2021/05/19 06:37:12;;;;;;;7.18;3.55;;;10.20;79.70;;;;;;4802478;29;20066;-83
2021/05/19 06:39:39;;;;;;;6.07;3.00;;;10.10;80.00;;;;;;4803923;29;20047;-82
2021/05/19 06:42:07;;;;;;;5.93;2.45;;;10.30;80.40;;;;;;4776758;29;20137;-81
2021/05/19 06:44:34;;;;;;;6.70;3.40;;;10.60;80.50;;;;;;4818338;29;20088;-82
2021/05/19 06:47:02;;;;;;;6.82;3.17;;;10.70;79.00;;;;;;4801086;29;20078;-82
2021/05/19 06:49:29;;;;;;;6.43;3.15;;;10.60;80.30;;;;;;4799053;29;20443;-81
2021/05/19 06:51:56;;;;;;;5.88;3.10;;;10.70;79.80;;;;;;4780240;29;20286;-83
2021/05/19 06:54:24;;;;;;;6.43;3.05;;;10.90;80.20;;;;;;4800900;29;20326;-82
2021/05/19 06:56:51;;;;;;;4.90;2.80;;;10.80;80.20;;;;;;4780035;29;20078;-84
2021/05/19 06:59:21;;;;;;;4.88;2.60;;;10.90;80.10;;;;;;4800552;29;20047;-81
2021/05/19 07:01:48;;;;;;;5.82;2.97;;;11.10;79.80;;;;;;4812150;29;20062;-81
2021/05/19 07:04:17;;;;;;;7.32;3.47;;;11.30;79.00;;;;;;4769433;29;20154;-82
2021/05/19 07:06:44;;;;;;;7.38;3.13;;;11.20;79.00;;;;;;4800378;29;20186;-79
2021/05/19 07:09:11;;;;;;;5.72;3.35;;;11.30;78.30;;;;;;4811156;29;20058;-80
2021/05/19 07:11:39;;;;;;;5.55;2.92;;;11.40;78.40;;;;;;4793097;29;20059;-81
2021/05/19 07:14:13;;;;;;;6.28;2.63;;;11.70;76.40;;;;;;4795623;29;20062;-82
2021/05/19 07:16:47;;;;;;;6.15;3.63;;;11.60;78.10;;;;;;4798231;29;20304;-83
2021/05/19 07:19:15;;;;;;;6.03;3.17;;;11.50;77.50;;;;;;4782916;29;20054;-84
2021/05/19 07:21:42;;;;;;;7.00;3.28;;;11.40;77.70;;;;;;4798776;29;20055;-83
2021/05/19 07:24:11;;;;;;;7.65;3.50;;;11.40;78.50;;;;;;4792800;29;20061;-81
2021/05/19 07:26:40;;;;;;;7.13;3.45;;;11.60;78.60;;;;;;4810511;29;20073;-80
2021/05/19 07:29:07;;;;;;;6.30;2.90;;;11.40;79.10;;;;;;4801499;29;20069;-81
2021/05/19 07:31:35;;;;;;;4.85;2.60;;;11.60;78.60;;;;;;4804824;29;20051;-82
2021/05/19 07:34:04;;;;;;;6.38;3.13;;;11.70;77.60;;;;;;4811689;29;20059;-81
2021/05/19 07:36:31;;;;;;;12.40;3.35;;;11.60;78.40;;;;;;4805611;29;20038;-81
2021/05/19 07:38:58;;;;;;;6.18;2.70;;;11.60;78.40;;;;;;4818245;29;20054;-81
2021/05/19 07:41:27;;;;;;;5.40;3.20;;;11.70;78.90;;;;;;4795420;29;20122;-82
2021/05/19 07:43:54;;;;;;;4.65;2.85;;;11.90;78.00;;;;;;4806335;29;20354;-82
2021/05/19 07:46:23;;;;;;;5.32;2.95;;;11.90;78.40;;;;;;4806347;29;20062;-80
2021/05/19 07:48:50;;;;;;;5.22;2.72;;;12.10;77.80;;;;;;4806162;29;20082;-81
2021/05/19 07:51:18;;;;;;;6.13;2.90;;;12.10;77.60;;;;;;4801057;29;20053;-82
2021/05/19 07:53:45;;;;;;;7.20;2.95;;;12.00;78.00;;;;;;4803353;29;20063;-81
2021/05/19 07:56:19;;;;;;;6.88;2.70;;;12.30;77.10;;;;;;4821129;29;20073;-83
2021/05/19 07:58:49;;;;;;;6.80;3.20;;;12.60;76.40;;;;;;4813103;29;20065;-80
2021/05/19 08:01:30;;;;;;;6.15;3.05;;;12.60;75.70;;;;;;4803360;29;20130;-82
2021/05/19 08:03:56;;;;;;;;;;;12.90;74.50;;;;;;4825514;29;20069;-82
2021/05/19 08:06:26;;;;;;;5.25;3.63;;;13.40;74.20;;;;;;4807831;29;19960;-82
2021/05/19 08:08:53;;;;;;;5.90;2.83;;;13.20;72.90;;;;;;4798279;29;20104;-82
2021/05/19 08:11:21;;;;;;;4.93;2.90;;;13.10;73.60;;;;;;4787897;29;20065;-83
2021/05/19 08:13:48;;;;;;;5.97;2.97;;;13.40;73.30;;;;;;4821371;29;20086;-81
2021/05/19 08:16:16;;;;;;;7.38;2.88;;;13.60;72.50;;;;;;4818942;29;20108;-81
2021/05/19 08:18:44;;;;;;;5.97;3.13;;;13.70;72.10;;;;;;4822261;29;20055;-81
2021/05/19 08:21:11;;;;;;;6.95;3.30;;;13.40;72.10;;;;;;4800283;29;20059;-85
2021/05/19 08:23:40;;;;;;;6.22;3.17;;;13.60;71.70;;;;;;4804587;29;20063;-85
2021/05/19 08:26:11;;;;;;;7.63;3.40;;;13.20;72.10;;;;;;4816294;29;20051;-83
2021/05/19 08:28:40;;;;;;;5.93;3.28;;;13.50;71.40;;;;;;4799585;29;20136;-83
2021/05/19 08:31:08;;;;;;;7.43;3.47;;;13.70;69.60;;;;;;4790281;29;20125;-83
2021/05/19 08:33:35;;;;;;;5.72;3.03;;;13.40;71.10;;;;;;4801697;29;20215;-86
2021/05/19 08:36:03;;;;;;;5.68;3.13;;;13.00;71.60;;;;;;4819485;29;20447;-83
2021/05/19 08:38:31;;;;;;;7.22;3.83;;;12.80;72.30;;;;;;4791101;29;20062;-83
2021/05/19 08:41:04;;;;;;;5.40;3.08;;;12.60;74.20;;;;;;4804861;29;20079;-83
2021/05/19 08:43:31;;;;;;;8.05;4.05;;;12.20;76.80;;;;;;4801133;29;20118;-86
2021/05/19 08:45:58;;;;;;;7.78;3.65;;;12.00;75.50;;;;;;4800850;29;20067;-82
2021/05/19 08:48:25;;;;;;;4.32;2.78;;;11.90;76.80;;;;;;4819414;29;20372;-84
2021/05/19 08:50:53;;;;;;;4.85;2.78;;;11.90;77.20;;;;;;4820207;29;20361;-83
2021/05/19 08:53:22;;;;;;;7.47;3.10;;;11.90;77.50;;;;;;4799969;29;20058;-81
2021/05/19 08:55:49;;;;;;;8.48;3.13;;;11.90;77.40;;;;;;4784108;29;20058;-84
2021/05/19 08:58:18;;;;;;;4.47;2.50;;;11.90;78.10;;;;;;4789724;29;20084;-83
2021/05/19 09:00:45;;;;;;;8.13;2.92;;;12.10;76.70;;;;;;4795214;29;20047;-84
2021/05/19 09:03:13;;;;;;;3.95;2.47;;;12.30;75.90;;;;;;4812957;29;20062;-85
2021/05/19 09:05:57;;;;;;;4.79;2.30;;;12.60;74.90;;;;;;2775799;29;10003431;-81
2021/05/19 09:08:24;;;;;;;6.50;2.80;;;13.20;74.10;;;;;;2813629;29;10001240;-83
2021/05/19 09:10:59;;;;;;;5.45;2.65;;;13.50;72.20;;;;;;4817531;29;20059;-84
2021/05/19 09:13:35;;;;;;;6.35;3.30;;;13.80;72.20;;;;;;4801608;29;20095;-84
2021/05/19 09:16:06;;;;;;;6.10;3.20;;;13.70;73.00;;;;;;4818068;29;20126;-82
2021/05/19 09:18:53;;;;;;;14.90;4.00;;;13.70;70.50;;;;;;4804166;29;20054;-84
2021/05/19 09:21:38;;;;;;;7.20;3.20;;;14.00;70.30;;;;;;4801119;29;20126;-84
2021/05/19 09:24:09;;;;;;;7.72;3.92;;;14.60;69.70;;;;;;4806106;29;20063;-82
2021/05/19 09:26:52;;;;;;;5.72;3.58;;;15.40;65.20;;;;;;4821934;29;20117;-86
2021/05/19 09:29:23;;;;;;;8.18;3.80;;;15.60;64.50;;;;;;4802740;29;20488;-83
2021/05/19 09:31:52;;;;;;;8.45;4.25;;;15.40;63.10;;;;;;4804486;29;20043;-84
2021/05/19 09:34:24;;;;;;;8.10;3.83;;;15.60;63.90;;;;;;4789821;29;20046;-84
2021/05/19 09:36:52;;;;;;;8.85;3.67;;;15.40;63.50;;;;;;4792312;29;20066;-82
2021/05/19 09:39:21;;;;;;;6.93;4.43;;;15.40;63.40;;;;;;4791621;29;20062;-85
2021/05/19 09:41:56;;;;;;;7.40;4.30;;;15.30;63.00;;;;;;4802221;29;20047;-83
2021/05/19 09:44:26;;;;;;;6.28;3.90;;;15.40;63.70;;;;;;4804247;29;20069;-82
2021/05/19 09:46:52;;;;;;;7.53;4.35;;;15.70;62.60;;;;;;4811445;29;20081;-84
2021/05/19 09:49:21;;;;;;;7.93;3.83;;;16.00;61.10;;;;;;4824674;29;20073;-83
2021/05/19 09:51:50;;;;;;;8.57;3.92;;;15.90;61.60;;;;;;4830884;29;20054;-82
2021/05/19 09:54:28;;;;;;;13.23;3.90;;;15.90;62.70;;;;;;4829950;29;20079;-82
2021/05/19 09:57:01;;;;;;;8.48;4.78;;;15.80;62.40;;;;;;4799406;29;20063;-82
2021/05/19 09:59:32;;;;;;;9.68;4.50;;;15.40;62.50;;;;;;4830181;29;20122;-82
2021/05/19 10:02:00;;;;;;;8.52;4.20;;;15.10;64.00;;;;;;4828094;29;20051;-82
2021/05/19 10:04:33;;;;;;;9.65;5.50;;;15.10;63.40;;;;;;4818510;29;20126;-83
2021/05/19 10:07:00;;;;;;;8.13;5.45;;;15.40;62.70;;;;;;4803008;29;20061;-82
2021/05/19 10:09:32;;;;;;;8.90;4.70;;;15.80;62.60;;;;;;4801021;29;20050;-84
2021/05/19 10:11:59;;;;;;;8.07;4.60;;;16.30;58.40;;;;;;4816386;29;20166;-88
2021/05/19 10:14:26;;;;;;;9.10;5.35;;;17.60;56.10;;;;;;4827306;29;20062;-82
2021/05/19 10:17:00;;;;;;;9.18;5.38;;;17.90;54.30;;;;;;4816264;29;20417;-84
2021/05/19 10:19:37;;;;;;;9.43;5.20;;;17.80;54.60;;;;;;4806468;29;20074;-81
2021/05/19 10:22:07;;;;;;;6.95;3.70;;;18.30;52.70;;;;;;4814860;29;20215;-84
2021/05/19 10:24:47;;;;;;;;;;;20.60;47.90;;;;;;4814728;29;20057;-83
2021/05/19 10:27:16;;;;;;;6.90;3.90;;;21.80;43.00;;;;;;4793883;29;19933;-83
2021/05/19 10:29:57;;;;;;;6.93;4.10;;;23.00;40.50;;;;;;4803867;29;20246;-82
2021/05/19 10:32:36;;;;;;;8.55;4.47;;;22.70;39.60;;;;;;4830933;29;20203;-83
2021/05/19 10:35:06;;;;;;;6.57;3.63;;;23.10;38.50;;;;;;4814332;29;20046;-83
2021/05/19 10:37:36;;;;;;;6.95;4.13;;;23.80;37.80;;;;;;4825699;29;20099;-85
2021/05/19 10:40:35;;;;;;;5.70;3.38;;;23.20;38.80;;;;;;4813310;29;20078;-83
2021/05/19 10:43:04;;;;;;;5.93;3.15;;;22.50;38.50;;;;;;4799148;29;20058;-82
2021/05/19 10:45:48;;;;;;;5.30;3.42;;;19.60;43.20;;;;;;4794286;29;20071;-82
2021/05/19 10:48:33;;;;;;;6.50;4.13;;;19.10;46.40;;;;;;4830551;29;20055;-84
2021/05/19 10:51:35;;;;;;;6.70;3.90;;;18.90;47.00;;;;;;4816499;29;20062;-82
2021/05/19 10:57:20;;;;;;;5.20;2.67;;;21.30;43.20;;;;;;4824547;29;20055;-83
2021/05/19 11:00:21;;;;;;;5.40;2.90;;;20.90;44.80;;;;;;4823235;29;20059;-83
2021/05/19 11:03:14;;;;;;;6.43;3.00;;;23.80;39.60;;;;;;4810027;29;20067;-84
2021/05/19 11:06:13;;;;;;;5.88;2.05;;;23.20;38.50;;;;;;4827523;29;20288;-84
2021/05/19 11:08:41;;;;;;;7.25;3.10;;;24.60;37.20;;;;;;4814719;29;20067;-82
2021/05/19 11:11:25;;;;;;;6.30;2.33;;;26.90;33.80;;;;;;4817964;29;20062;-84
2021/05/19 11:14:01;;;;;;;4.25;2.58;;;28.20;30.90;;;;;;4821287;29;20070;-84
2021/05/19 11:17:05;;;;;;;5.30;3.03;;;28.20;30.50;;;;;;4817183;29;20051;-85
2021/05/19 11:19:33;;;;;;;;;;;24.60;35.60;;;;;;4817156;29;20057;-86
2021/05/19 11:22:08;;;;;;;3.75;1.80;;;22.90;38.50;;;;;;4801127;29;19960;-83
2021/05/19 11:24:58;;;;;;;3.08;1.42;;;22.10;41.30;;;;;;4829656;29;20137;-83
2021/05/19 11:27:27;;;;;;;3.92;2.00;;;21.50;43.00;;;;;;4785578;29;20055;-83
2021/05/19 11:29:55;;;;;;;9.70;2.00;;;19.90;41.60;;;;;;4812941;29;20062;-82
2021/05/19 11:32:23;;;;;;;5.28;2.17;;;19.80;43.30;;;;;;4830257;29;20042;-82
2021/05/19 11:34:52;;;;;;;3.15;1.55;;;19.50;43.10;;;;;;4816325;29;20054;-87
2021/05/19 11:37:22;;;;;;;2.55;1.35;;;18.60;45.70;;;;;;4814794;29;20064;-83
2021/05/19 11:39:52;;;;;;;3.17;1.05;;;18.10;45.70;;;;;;4802716;29;20055;-82
2021/05/19 11:42:22;;;;;;;4.72;1.50;;;18.30;45.80;;;;;;4815921;29;20047;-83
2021/05/19 11:44:54;;;;;;;2.40;1.10;;;17.80;47.40;;;;;;4812988;29;20099;-83
2021/05/19 11:47:40;;;;;;;1.88;0.82;;;18.10;48.00;;;;;;4815395;29;20410;-83
2021/05/19 11:50:15;;;;;;;3.42;0.30;;;17.50;48.30;;;;;;4820337;29;20231;-83
2021/05/19 11:52:47;;;;;;;0.20;0.20;;;18.00;43.90;;;;;;4815238;29;20058;-82
2021/05/19 11:55:38;;;;;;;0.32;0.17;;;17.70;43.40;;;;;;4816242;29;20062;-83
2021/05/19 11:58:09;;;;;;;2.00;0.20;;;16.40;47.80;;;;;;4821701;29;20135;-85
2021/05/19 12:00:44;;;;;;;0.50;0.30;;;16.00;49.80;;;;;;4816433;29;20066;-84
2021/05/19 12:03:13;;;;;;;2.22;0.35;;;15.60;51.10;;;;;;4817932;29;20062;-84
2021/05/19 12:05:41;;;;;;;0.63;0.30;;;15.50;51.70;;;;;;4841474;29;20059;-82
2021/05/19 12:08:15;;;;;;;0.68;0.30;;;15.40;52.20;;;;;;4828580;29;20313;-84
2021/05/19 12:11:08;;;;;;;0.77;0.40;;;15.50;52.70;;;;;;4834624;29;20035;-84
2021/05/19 12:13:38;;;;;;;1.50;0.38;;;15.70;51.90;;;;;;4823900;29;20046;-84
2021/05/19 12:16:08;;;;;;;1.23;0.30;;;15.70;51.90;;;;;;4781160;29;20062;-83
2021/05/19 12:18:37;;;;;;;0.32;0.30;;;15.70;52.30;;;;;;4813364;29;20341;-83
2021/05/19 12:21:12;;;;;;;2.25;0.40;;;15.70;53.10;;;;;;4797151;29;20059;-83
2021/05/19 12:23:49;;;;;;;2.25;0.40;;;15.80;55.20;;;;;;4814840;29;20047;-84
2021/05/19 12:26:19;;;;;;;2.08;0.60;;;16.00;56.10;;;;;;4794974;29;20402;-83
2021/05/19 12:28:46;;;;;;;3.00;1.03;;;16.10;55.10;;;;;;4805437;29;20296;-85
2021/05/19 12:31:26;;;;;;;1.15;0.30;;;16.50;57.70;;;;;;4807605;29;20083;-82
2021/05/19 12:33:56;;;;;;;2.22;0.65;;;17.60;59.40;;;;;;4823516;29;20086;-84
2021/05/19 12:36:25;;;;;;;0.75;0.30;;;20.60;52.20;;;;;;4826766;29;20472;-83
2021/05/19 12:38:56;;;;;;;1.85;0.40;;;22.70;44.80;;;;;;4810266;29;20047;-83
2021/05/19 12:41:41;;;;;;;1.50;0.40;;;23.60;38.90;;;;;;4810279;29;20049;-83
2021/05/19 12:44:11;;;;;;;0.88;0.30;;;24.70;36.70;;;;;;4794290;29;20066;-83
2021/05/19 12:46:38;;;;;;;1.65;0.40;;;26.50;34.30;;;;;;4804593;29;20059;-83
2021/05/19 12:49:14;;;;;;;1.05;0.30;;;27.30;31.80;;;;;;4805297;29;20058;-83
2021/05/19 12:51:49;;;;;;;1.95;0.38;;;28.50;28.80;;;;;;4811616;29;20051;-85
2021/05/19 12:54:26;;;;;;;1.02;0.38;;;28.70;26.40;;;;;;4811999;29;20092;-86
2021/05/19 12:57:03;;;;;;;0.82;0.30;;;27.40;27.90;;;;;;4809656;29;20290;-84
2021/05/19 12:59:50;;;;;;;1.30;0.40;;;27.10;29.20;;;;;;4815387;29;20061;-83
2021/05/19 13:02:18;;;;;;;3.35;0.50;;;27.40;28.10;;;;;;4792764;29;20065;-85
2021/05/19 13:04:50;;;;;;;0.70;0.32;;;28.70;26.50;;;;;;4827977;29;20061;-83
2021/05/19 13:07:17;;;;;;;1.45;0.30;;;28.60;25.80;;;;;;4818952;29;20084;-83
2021/05/19 13:09:49;;;;;;;0.13;0.13;;;28.80;24.80;;;;;;4800993;29;20047;-86
2021/05/19 13:12:26;;;;;;;1.35;0.50;;;28.90;25.40;;;;;;4815987;29;20070;-84